This is the latest recevied weather packets stored in our database for station/object KD5FHA. If no packets are shown the sender has not sent any weather packets the latest 10 day(s).
| Time | Temp. | Humidity | Pressure | Rain* | Wind** | Luminosity | Snow |
|---|---|---|---|---|---|---|---|
| 1788624872 | 33.33° C | 53% | 1015.8 hPa | 0 mm | - | 616 W/m² | - |
| 1788624570 | 32.78° C | 53% | 1015.9 hPa | 0 mm | - | 73 W/m² | - |
| 1788624265 | 32.78° C | 53% | 1015.9 hPa | 0 mm | - | 70 W/m² | - |
| 1788623964 | 32.78° C | 53% | 1016.1 hPa | 0 mm | - | 68 W/m² | - |
| 1788623659 | 32.78° C | 54% | 1016.1 hPa | 0 mm | - | 67 W/m² | - |
| 1788623357 | 32.78° C | 56% | 1016 hPa | 0 mm | - | 65 W/m² | - |
| 1788623054 | 32.22° C | 56% | 1016 hPa | 0 mm | - | 67 W/m² | - |
| 1788622749 | 32.22° C | 57% | 1016.1 hPa | 0 mm | - | 62 W/m² | - |
| 1788622445 | 32.22° C | 57% | 1015.9 hPa | 0 mm | - | 78 W/m² | - |
| 1788622145 | 32.22° C | 58% | 1015.9 hPa | 0 mm | - | 61 W/m² | - |
| 1788621844 | 31.67° C | 60% | 1015.8 hPa | 0 mm | - | 60 W/m² | - |
| 1788621539 | 31.11° C | 62% | 1016 hPa | 0 mm | - | 59 W/m² | - |
| 1788621234 | 30.56° C | 62% | 1015.9 hPa | 0 mm | - | 58 W/m² | - |
| 1788620929 | 31.11° C | 62% | 1015.9 hPa | 0 mm | - | 57 W/m² | - |
| 1788620623 | 30.56° C | 64% | 1015.7 hPa | 0 mm | - | 55 W/m² | - |
| 1788620320 | 30.56° C | 63% | 1015.7 hPa | 0 mm | - | 54 W/m² | - |
| 1788620015 | 30° C | 66% | 1015.9 hPa | 0 mm | - | 99 W/m² | - |
| 1788619714 | 30.56° C | 64% | 1015.9 hPa | 0 mm | - | 86 W/m² | - |
| 1788619410 | 30° C | 65% | 1015.9 hPa | 0 mm | - | 52 W/m² | - |
| 1788619108 | 30° C | 67% | 1016 hPa | 0 mm | - | 52 W/m² | - |
| 1788618803 | 29.44° C | 69% | 1016.1 hPa | 0 mm | - | 51 W/m² | - |
| 1788618501 | 29.44° C | 70% | 1016 hPa | 0 mm | - | 50 W/m² | - |
| 1788618196 | 28.89° C | 71% | 1015.9 hPa | 0 mm | - | 52 W/m² | - |
| 1788617892 | 28.33° C | 72% | 1015.8 hPa | 0 mm | - | 48 W/m² | - |
| 1788617588 | 28.33° C | 72% | 1015.8 hPa | 0 mm | - | 95 W/m² | - |
* Rain latest hour (hover to see other rain measurements)
** Current wind speed in m/s (hover to see current wind gust speed)